sensor_id;sensor_type;location;lat;lon;timestamp;temperature;humidity
14144;DHT22;7152;48.348;10.980;2022-11-20T00:01:17;5.90;99.90
14144;DHT22;7152;48.348;10.980;2022-11-20T00:03:43;5.90;99.90
14144;DHT22;7152;48.348;10.980;2022-11-20T00:06:12;5.80;99.90
14144;DHT22;7152;48.348;10.980;2022-11-20T00:08:38;5.80;99.90
14144;DHT22;7152;48.348;10.980;2022-11-20T00:11:12;5.90;99.90
14144;DHT22;7152;48.348;10.980;2022-11-20T00:13:38;5.80;99.90
14144;DHT22;7152;48.348;10.980;2022-11-20T00:16:06;5.80;99.90
14144;DHT22;7152;48.348;10.980;2022-11-20T00:18:33;5.80;99.90
14144;DHT22;7152;48.348;10.980;2022-11-20T00:21:07;5.80;99.90
14144;DHT22;7152;48.348;10.980;2022-11-20T00:23:33;5.80;99.90
14144;DHT22;7152;48.348;10.980;2022-11-20T00:26:03;5.80;99.90
14144;DHT22;7152;48.348;10.980;2022-11-20T00:28:29;5.80;99.90
14144;DHT22;7152;48.348;10.980;2022-11-20T00:31:10;5.80;99.90
14144;DHT22;7152;48.348;10.980;2022-11-20T00:33:36;5.80;99.90
14144;DHT22;7152;48.348;10.980;2022-11-20T00:36:07;5.80;99.90
14144;DHT22;7152;48.348;10.980;2022-11-20T00:38:34;5.80;99.90
14144;DHT22;7152;48.348;10.980;2022-11-20T00:41:04;5.70;99.90
14144;DHT22;7152;48.348;10.980;2022-11-20T00:43:30;5.70;99.90
14144;DHT22;7152;48.348;10.980;2022-11-20T00:45:59;5.70;99.90
14144;DHT22;7152;48.348;10.980;2022-11-20T00:48:25;5.70;99.90
14144;DHT22;7152;48.348;10.980;2022-11-20T00:50:51;5.70;99.90
14144;DHT22;7152;48.348;10.980;2022-11-20T00:53:17;5.70;99.90
14144;DHT22;7152;48.348;10.980;2022-11-20T00:55:42;5.70;99.90
14144;DHT22;7152;48.348;10.980;2022-11-20T00:58:08;5.70;99.90
14144;DHT22;7152;48.348;10.980;2022-11-20T01:00:34;5.70;99.90
14144;DHT22;7152;48.348;10.980;2022-11-20T01:02:59;5.60;99.90
14144;DHT22;7152;48.348;10.980;2022-11-20T01:05:25;5.60;99.90
14144;DHT22;7152;48.348;10.980;2022-11-20T01:07:51;5.60;99.90
14144;DHT22;7152;48.348;10.980;2022-11-20T01:10:16;5.60;99.90
14144;DHT22;7152;48.348;10.980;2022-11-20T01:12:42;5.60;99.90
14144;DHT22;7152;48.348;10.980;2022-11-20T01:15:08;5.50;99.90
14144;DHT22;7152;48.348;10.980;2022-11-20T01:17:34;5.50;99.90
14144;DHT22;7152;48.348;10.980;2022-11-20T01:19:59;5.50;99.90
14144;DHT22;7152;48.348;10.980;2022-11-20T01:22:25;5.50;99.90
14144;DHT22;7152;48.348;10.980;2022-11-20T01:24:51;5.40;99.90
14144;DHT22;7152;48.348;10.980;2022-11-20T01:27:16;5.50;99.90
14144;DHT22;7152;48.348;10.980;2022-11-20T01:29:42;5.50;99.90
14144;DHT22;7152;48.348;10.980;2022-11-20T01:32:07;5.50;99.90
14144;DHT22;7152;48.348;10.980;2022-11-20T01:34:33;5.50;99.90
14144;DHT22;7152;48.348;10.980;2022-11-20T01:36:58;5.50;99.90
14144;DHT22;7152;48.348;10.980;2022-11-20T01:39:25;5.50;99.90
14144;DHT22;7152;48.348;10.980;2022-11-20T01:41:52;5.50;99.90
14144;DHT22;7152;48.348;10.980;2022-11-20T01:45:00;5.50;99.90
14144;DHT22;7152;48.348;10.980;2022-11-20T01:47:34;5.40;99.90
14144;DHT22;7152;48.348;10.980;2022-11-20T01:50:24;5.50;99.90
14144;DHT22;7152;48.348;10.980;2022-11-20T01:52:55;5.50;99.90
14144;DHT22;7152;48.348;10.980;2022-11-20T01:55:46;5.50;99.90
14144;DHT22;7152;48.348;10.980;2022-11-20T01:58:10;5.50;99.90
14144;DHT22;7152;48.348;10.980;2022-11-20T02:00:36;5.40;99.90
14144;DHT22;7152;48.348;10.980;2022-11-20T02:03:08;5.40;99.90
14144;DHT22;7152;48.348;10.980;2022-11-20T02:08:26;5.40;99.90
14144;DHT22;7152;48.348;10.980;2022-11-20T02:10:52;5.40;99.90
14144;DHT22;7152;48.348;10.980;2022-11-20T02:13:17;5.40;99.90
14144;DHT22;7152;48.348;10.980;2022-11-20T02:16:02;5.40;99.90
14144;DHT22;7152;48.348;10.980;2022-11-20T02:18:28;5.50;99.90
14144;DHT22;7152;48.348;10.980;2022-11-20T02:21:03;5.50;99.90
14144;DHT22;7152;48.348;10.980;2022-11-20T02:26:35;5.40;99.90
14144;DHT22;7152;48.348;10.980;2022-11-20T02:29:03;5.40;99.90
14144;DHT22;7152;48.348;10.980;2022-11-20T02:31:33;5.30;99.90
14144;DHT22;7152;48.348;10.980;2022-11-20T02:33:59;5.30;99.90
14144;DHT22;7152;48.348;10.980;2022-11-20T02:36:26;5.30;99.90
14144;DHT22;7152;48.348;10.980;2022-11-20T02:38:52;5.20;99.90
14144;DHT22;7152;48.348;10.980;2022-11-20T02:41:18;5.30;99.90
14144;DHT22;7152;48.348;10.980;2022-11-20T02:43:44;5.30;99.90
14144;DHT22;7152;48.348;10.980;2022-11-20T02:46:09;5.30;99.90
14144;DHT22;7152;48.348;10.980;2022-11-20T02:48:35;5.30;99.90
14144;DHT22;7152;48.348;10.980;2022-11-20T02:51:01;5.20;99.90
14144;DHT22;7152;48.348;10.980;2022-11-20T02:53:27;5.20;99.90
14144;DHT22;7152;48.348;10.980;2022-11-20T02:55:52;5.20;99.90
14144;DHT22;7152;48.348;10.980;2022-11-20T02:58:18;5.20;99.90
14144;DHT22;7152;48.348;10.980;2022-11-20T03:00:44;5.20;99.90
14144;DHT22;7152;48.348;10.980;2022-11-20T03:03:09;5.20;99.90
14144;DHT22;7152;48.348;10.980;2022-11-20T03:05:35;5.20;99.90
14144;DHT22;7152;48.348;10.980;2022-11-20T03:08:00;5.30;99.90
14144;DHT22;7152;48.348;10.980;2022-11-20T03:10:26;5.30;99.90
14144;DHT22;7152;48.348;10.980;2022-11-20T03:12:55;5.30;99.90
14144;DHT22;7152;48.348;10.980;2022-11-20T03:15:22;5.30;99.90
14144;DHT22;7152;48.348;10.980;2022-11-20T03:17:48;5.30;99.90
14144;DHT22;7152;48.348;10.980;2022-11-20T03:20:14;5.30;99.90
14144;DHT22;7152;48.348;10.980;2022-11-20T03:22:40;5.30;99.90
14144;DHT22;7152;48.348;10.980;2022-11-20T03:25:06;5.40;99.90
14144;DHT22;7152;48.348;10.980;2022-11-20T03:27:33;5.30;99.90
14144;DHT22;7152;48.348;10.980;2022-11-20T03:29:59;5.40;99.90
14144;DHT22;7152;48.348;10.980;2022-11-20T03:32:25;5.30;99.90
14144;DHT22;7152;48.348;10.980;2022-11-20T03:34:51;5.40;99.90
14144;DHT22;7152;48.348;10.980;2022-11-20T03:37:16;5.40;99.90
14144;DHT22;7152;48.348;10.980;2022-11-20T03:39:42;5.30;99.90
14144;DHT22;7152;48.348;10.980;2022-11-20T03:42:08;5.30;99.90
14144;DHT22;7152;48.348;10.980;2022-11-20T03:44:54;5.30;99.90
14144;DHT22;7152;48.348;10.980;2022-11-20T03:47:20;5.30;99.90
14144;DHT22;7152;48.348;10.980;2022-11-20T03:49:46;5.40;99.90
14144;DHT22;7152;48.348;10.980;2022-11-20T03:52:11;5.30;99.90
14144;DHT22;7152;48.348;10.980;2022-11-20T03:54:37;5.40;99.90
14144;DHT22;7152;48.348;10.980;2022-11-20T03:57:02;5.40;99.90
14144;DHT22;7152;48.348;10.980;2022-11-20T03:59:28;5.40;99.90
14144;DHT22;7152;48.348;10.980;2022-11-20T04:01:54;5.40;99.90
14144;DHT22;7152;48.348;10.980;2022-11-20T04:04:19;5.40;99.90
14144;DHT22;7152;48.348;10.980;2022-11-20T04:06:45;5.40;99.90
14144;DHT22;7152;48.348;10.980;2022-11-20T04:09:10;5.40;99.90
14144;DHT22;7152;48.348;10.980;2022-11-20T04:11:37;5.40;99.90
14144;DHT22;7152;48.348;10.980;2022-11-20T04:14:05;5.40;99.90
14144;DHT22;7152;48.348;10.980;2022-11-20T04:16:35;5.30;99.90
14144;DHT22;7152;48.348;10.980;2022-11-20T04:19:03;5.30;99.90
14144;DHT22;7152;48.348;10.980;2022-11-20T04:21:29;5.30;99.90
14144;DHT22;7152;48.348;10.980;2022-11-20T04:23:55;5.30;99.90
14144;DHT22;7152;48.348;10.980;2022-11-20T04:26:23;5.30;99.90
14144;DHT22;7152;48.348;10.980;2022-11-20T04:28:49;5.30;99.90
14144;DHT22;7152;48.348;10.980;2022-11-20T04:31:17;5.30;99.90
14144;DHT22;7152;48.348;10.980;2022-11-20T04:33:44;5.20;99.90
14144;DHT22;7152;48.348;10.980;2022-11-20T04:36:24;5.20;99.90
14144;DHT22;7152;48.348;10.980;2022-11-20T04:38:54;5.20;99.90
14144;DHT22;7152;48.348;10.980;2022-11-20T04:41:22;5.30;99.90
14144;DHT22;7152;48.348;10.980;2022-11-20T04:43:49;5.30;99.90
14144;DHT22;7152;48.348;10.980;2022-11-20T04:46:16;5.20;99.90
14144;DHT22;7152;48.348;10.980;2022-11-20T04:48:41;5.30;99.90
14144;DHT22;7152;48.348;10.980;2022-11-20T04:51:07;5.20;99.90
14144;DHT22;7152;48.348;10.980;2022-11-20T04:53:33;5.30;99.90
14144;DHT22;7152;48.348;10.980;2022-11-20T04:56:06;5.20;99.90
14144;DHT22;7152;48.348;10.980;2022-11-20T04:58:33;5.30;99.90
14144;DHT22;7152;48.348;10.980;2022-11-20T05:01:07;5.20;99.90
14144;DHT22;7152;48.348;10.980;2022-11-20T05:03:33;5.20;99.90
14144;DHT22;7152;48.348;10.980;2022-11-20T05:06:03;5.20;99.90
14144;DHT22;7152;48.348;10.980;2022-11-20T05:08:30;5.20;99.90
14144;DHT22;7152;48.348;10.980;2022-11-20T05:11:10;5.20;99.90
14144;DHT22;7152;48.348;10.980;2022-11-20T05:13:37;5.00;99.90
14144;DHT22;7152;48.348;10.980;2022-11-20T05:16:07;5.00;99.90
14144;DHT22;7152;48.348;10.980;2022-11-20T05:18:34;4.90;99.90
14144;DHT22;7152;48.348;10.980;2022-11-20T05:21:00;4.90;99.90
14144;DHT22;7152;48.348;10.980;2022-11-20T05:23:26;4.90;99.90
14144;DHT22;7152;48.348;10.980;2022-11-20T05:25:52;4.90;99.90
14144;DHT22;7152;48.348;10.980;2022-11-20T05:28:18;4.90;99.90
14144;DHT22;7152;48.348;10.980;2022-11-20T05:30:44;4.90;99.90
14144;DHT22;7152;48.348;10.980;2022-11-20T05:33:10;4.90;99.90
14144;DHT22;7152;48.348;10.980;2022-11-20T05:35:35;4.90;99.90
14144;DHT22;7152;48.348;10.980;2022-11-20T05:38:01;5.00;99.90
14144;DHT22;7152;48.348;10.980;2022-11-20T05:40:27;4.90;99.90
14144;DHT22;7152;48.348;10.980;2022-11-20T05:42:52;5.00;99.90
14144;DHT22;7152;48.348;10.980;2022-11-20T05:45:18;5.00;99.90
14144;DHT22;7152;48.348;10.980;2022-11-20T05:47:44;5.10;99.90
14144;DHT22;7152;48.348;10.980;2022-11-20T05:50:09;5.10;99.90
14144;DHT22;7152;48.348;10.980;2022-11-20T05:52:35;5.10;99.90
14144;DHT22;7152;48.348;10.980;2022-11-20T05:55:01;5.10;99.90
14144;DHT22;7152;48.348;10.980;2022-11-20T05:57:26;5.20;99.90
14144;DHT22;7152;48.348;10.980;2022-11-20T05:59:52;5.20;99.90
14144;DHT22;7152;48.348;10.980;2022-11-20T06:02:18;5.20;99.90
14144;DHT22;7152;48.348;10.980;2022-11-20T06:04:43;5.20;99.90
14144;DHT22;7152;48.348;10.980;2022-11-20T06:07:09;5.30;99.90
14144;DHT22;7152;48.348;10.980;2022-11-20T06:09:35;5.20;99.90
14144;DHT22;7152;48.348;10.980;2022-11-20T06:12:00;5.20;99.90
14144;DHT22;7152;48.348;10.980;2022-11-20T06:14:26;5.30;99.90
14144;DHT22;7152;48.348;10.980;2022-11-20T06:16:51;5.30;99.90
14144;DHT22;7152;48.348;10.980;2022-11-20T06:19:17;5.30;99.90
14144;DHT22;7152;48.348;10.980;2022-11-20T06:21:43;5.30;99.90
14144;DHT22;7152;48.348;10.980;2022-11-20T06:24:09;5.30;99.90
14144;DHT22;7152;48.348;10.980;2022-11-20T06:26:35;5.30;99.90
14144;DHT22;7152;48.348;10.980;2022-11-20T06:29:01;5.30;99.90
14144;DHT22;7152;48.348;10.980;2022-11-20T06:31:27;5.30;99.90
14144;DHT22;7152;48.348;10.980;2022-11-20T06:33:53;5.30;99.90
14144;DHT22;7152;48.348;10.980;2022-11-20T06:36:21;5.40;99.90
14144;DHT22;7152;48.348;10.980;2022-11-20T06:38:47;5.30;99.90
14144;DHT22;7152;48.348;10.980;2022-11-20T06:41:18;5.40;99.90
14144;DHT22;7152;48.348;10.980;2022-11-20T06:43:44;5.40;99.90
14144;DHT22;7152;48.348;10.980;2022-11-20T06:46:11;5.40;99.90
14144;DHT22;7152;48.348;10.980;2022-11-20T06:48:37;5.40;99.90
14144;DHT22;7152;48.348;10.980;2022-11-20T06:51:04;5.40;99.90
14144;DHT22;7152;48.348;10.980;2022-11-20T06:53:30;5.40;99.90
14144;DHT22;7152;48.348;10.980;2022-11-20T06:55:56;5.40;99.90
14144;DHT22;7152;48.348;10.980;2022-11-20T06:58:23;5.40;99.90
14144;DHT22;7152;48.348;10.980;2022-11-20T07:00:51;5.40;99.90
14144;DHT22;7152;48.348;10.980;2022-11-20T07:03:17;5.50;99.90
14144;DHT22;7152;48.348;10.980;2022-11-20T07:05:42;5.50;99.90
14144;DHT22;7152;48.348;10.980;2022-11-20T07:08:09;5.50;99.90
14144;DHT22;7152;48.348;10.980;2022-11-20T07:10:34;5.60;99.90
14144;DHT22;7152;48.348;10.980;2022-11-20T07:13:00;5.60;99.90
14144;DHT22;7152;48.348;10.980;2022-11-20T07:15:26;5.60;99.90
14144;DHT22;7152;48.348;10.980;2022-11-20T07:17:52;5.60;99.90
14144;DHT22;7152;48.348;10.980;2022-11-20T07:20:18;5.70;99.90
14144;DHT22;7152;48.348;10.980;2022-11-20T07:22:43;5.70;99.90
14144;DHT22;7152;48.348;10.980;2022-11-20T07:25:09;5.70;99.90
14144;DHT22;7152;48.348;10.980;2022-11-20T07:27:35;5.80;99.90
14144;DHT22;7152;48.348;10.980;2022-11-20T07:30:03;5.80;99.90
14144;DHT22;7152;48.348;10.980;2022-11-20T07:32:29;5.80;99.90
14144;DHT22;7152;48.348;10.980;2022-11-20T07:34:54;5.80;99.90
14144;DHT22;7152;48.348;10.980;2022-11-20T07:37:20;5.80;99.90
14144;DHT22;7152;48.348;10.980;2022-11-20T07:39:46;5.90;99.90
14144;DHT22;7152;48.348;10.980;2022-11-20T07:42:11;5.90;99.90
14144;DHT22;7152;48.348;10.980;2022-11-20T07:44:38;6.00;99.90
14144;DHT22;7152;48.348;10.980;2022-11-20T07:47:03;6.00;99.90
14144;DHT22;7152;48.348;10.980;2022-11-20T07:49:29;6.00;99.90
14144;DHT22;7152;48.348;10.980;2022-11-20T07:51:55;6.00;99.90
14144;DHT22;7152;48.348;10.980;2022-11-20T07:54:21;6.00;99.90
14144;DHT22;7152;48.348;10.980;2022-11-20T07:56:48;6.10;99.90
14144;DHT22;7152;48.348;10.980;2022-11-20T07:59:13;6.10;99.90
14144;DHT22;7152;48.348;10.980;2022-11-20T08:01:40;6.30;99.90
14144;DHT22;7152;48.348;10.980;2022-11-20T08:04:06;6.20;99.90
14144;DHT22;7152;48.348;10.980;2022-11-20T08:06:32;6.30;99.90
14144;DHT22;7152;48.348;10.980;2022-11-20T08:08:57;6.30;99.90
14144;DHT22;7152;48.348;10.980;2022-11-20T08:11:23;6.30;99.90
14144;DHT22;7152;48.348;10.980;2022-11-20T08:14:07;6.30;99.90
14144;DHT22;7152;48.348;10.980;2022-11-20T08:16:49;6.40;99.90
14144;DHT22;7152;48.348;10.980;2022-11-20T08:19:16;6.40;99.90
14144;DHT22;7152;48.348;10.980;2022-11-20T08:21:42;6.40;99.90
14144;DHT22;7152;48.348;10.980;2022-11-20T08:24:08;6.40;99.90
14144;DHT22;7152;48.348;10.980;2022-11-20T08:26:35;6.50;99.90
14144;DHT22;7152;48.348;10.980;2022-11-20T08:29:02;6.50;99.90
14144;DHT22;7152;48.348;10.980;2022-11-20T08:31:28;6.60;99.90
14144;DHT22;7152;48.348;10.980;2022-11-20T08:33:54;6.70;99.90
14144;DHT22;7152;48.348;10.980;2022-11-20T08:36:21;6.80;99.90
14144;DHT22;7152;48.348;10.980;2022-11-20T08:38:48;6.90;99.90
14144;DHT22;7152;48.348;10.980;2022-11-20T08:41:14;6.90;99.90
14144;DHT22;7152;48.348;10.980;2022-11-20T08:43:57;6.80;99.90
14144;DHT22;7152;48.348;10.980;2022-11-20T08:46:27;6.90;99.90
14144;DHT22;7152;48.348;10.980;2022-11-20T08:48:53;6.80;99.90
14144;DHT22;7152;48.348;10.980;2022-11-20T08:51:20;6.80;99.90
14144;DHT22;7152;48.348;10.980;2022-11-20T08:53:46;6.90;99.90
14144;DHT22;7152;48.348;10.980;2022-11-20T08:56:13;6.90;99.90
14144;DHT22;7152;48.348;10.980;2022-11-20T08:58:39;7.00;99.90
14144;DHT22;7152;48.348;10.980;2022-11-20T09:01:05;7.00;99.90
14144;DHT22;7152;48.348;10.980;2022-11-20T09:03:31;7.00;99.90
14144;DHT22;7152;48.348;10.980;2022-11-20T09:06:02;7.00;99.90
14144;DHT22;7152;48.348;10.980;2022-11-20T09:08:28;7.00;99.90
14144;DHT22;7152;48.348;10.980;2022-11-20T09:10:56;7.10;99.90
14144;DHT22;7152;48.348;10.980;2022-11-20T09:13:22;7.10;99.90
14144;DHT22;7152;48.348;10.980;2022-11-20T09:15:55;7.10;99.90
14144;DHT22;7152;48.348;10.980;2022-11-20T09:18:22;7.20;99.90
14144;DHT22;7152;48.348;10.980;2022-11-20T09:20:48;7.20;99.90
14144;DHT22;7152;48.348;10.980;2022-11-20T09:23:14;7.20;99.90
14144;DHT22;7152;48.348;10.980;2022-11-20T09:25:40;7.20;99.90
14144;DHT22;7152;48.348;10.980;2022-11-20T09:28:06;7.30;99.90
14144;DHT22;7152;48.348;10.980;2022-11-20T09:30:31;7.30;99.90
14144;DHT22;7152;48.348;10.980;2022-11-20T09:32:57;7.30;99.90
14144;DHT22;7152;48.348;10.980;2022-11-20T09:35:22;7.30;99.90
14144;DHT22;7152;48.348;10.980;2022-11-20T09:37:48;7.20;99.90
14144;DHT22;7152;48.348;10.980;2022-11-20T09:40:28;7.10;99.90
14144;DHT22;7152;48.348;10.980;2022-11-20T09:43:19;7.20;99.90
14144;DHT22;7152;48.348;10.980;2022-11-20T09:48:36;7.30;99.90
14144;DHT22;7152;48.348;10.980;2022-11-20T09:54:32;7.50;99.90
14144;DHT22;7152;48.348;10.980;2022-11-20T09:57:05;7.60;99.90
14144;DHT22;7152;48.348;10.980;2022-11-20T09:59:45;7.70;99.90
14144;DHT22;7152;48.348;10.980;2022-11-20T10:13:17;8.00;99.90
14144;DHT22;7152;48.348;10.980;2022-11-20T10:24:12;7.80;99.90
14144;DHT22;7152;48.348;10.980;2022-11-20T10:26:45;7.70;99.90
14144;DHT22;7152;48.348;10.980;2022-11-20T10:29:17;7.80;99.90
14144;DHT22;7152;48.348;10.980;2022-11-20T10:31:55;7.80;99.90
14144;DHT22;7152;48.348;10.980;2022-11-20T10:37:12;7.90;99.90
14144;DHT22;7152;48.348;10.980;2022-11-20T10:39:57;7.90;99.90
14144;DHT22;7152;48.348;10.980;2022-11-20T10:45:09;7.90;99.90
14144;DHT22;7152;48.348;10.980;2022-11-20T10:47:36;8.00;99.90
14144;DHT22;7152;48.348;10.980;2022-11-20T10:50:04;8.00;99.90
14144;DHT22;7152;48.348;10.980;2022-11-20T10:52:49;8.10;99.90
14144;DHT22;7152;48.348;10.980;2022-11-20T10:55:30;8.10;99.90
14144;DHT22;7152;48.348;10.980;2022-11-20T10:58:14;8.00;99.90
14144;DHT22;7152;48.348;10.980;2022-11-20T11:00:40;8.10;99.90
14144;DHT22;7152;48.348;10.980;2022-11-20T11:03:27;8.00;99.90
14144;DHT22;7152;48.348;10.980;2022-11-20T11:08:41;7.90;99.90
14144;DHT22;7152;48.348;10.980;2022-11-20T11:11:24;7.80;99.90
14144;DHT22;7152;48.348;10.980;2022-11-20T11:13:52;7.70;99.90
14144;DHT22;7152;48.348;10.980;2022-11-20T11:16:26;7.70;99.90
14144;DHT22;7152;48.348;10.980;2022-11-20T11:19:04;7.70;99.90
14144;DHT22;7152;48.348;10.980;2022-11-20T11:21:30;7.60;99.90
14144;DHT22;7152;48.348;10.980;2022-11-20T11:24:03;7.60;99.90
14144;DHT22;7152;48.348;10.980;2022-11-20T11:26:29;7.60;99.90
14144;DHT22;7152;48.348;10.980;2022-11-20T11:29:03;7.60;99.90
14144;DHT22;7152;48.348;10.980;2022-11-20T11:31:34;7.50;99.90
14144;DHT22;7152;48.348;10.980;2022-11-20T11:34:16;7.50;99.90
14144;DHT22;7152;48.348;10.980;2022-11-20T11:36:49;7.50;99.90
14144;DHT22;7152;48.348;10.980;2022-11-20T11:39:20;7.60;99.90
14144;DHT22;7152;48.348;10.980;2022-11-20T11:41:46;7.60;99.90
14144;DHT22;7152;48.348;10.980;2022-11-20T11:44:20;7.80;99.90
14144;DHT22;7152;48.348;10.980;2022-11-20T11:52:53;7.90;99.90
14144;DHT22;7152;48.348;10.980;2022-11-20T11:55:42;8.00;99.90
14144;DHT22;7152;48.348;10.980;2022-11-20T12:01:33;8.00;99.90
14144;DHT22;7152;48.348;10.980;2022-11-20T12:06:50;7.90;99.90
14144;DHT22;7152;48.348;10.980;2022-11-20T12:09:18;7.90;99.90
14144;DHT22;7152;48.348;10.980;2022-11-20T12:11:51;7.90;99.90
14144;DHT22;7152;48.348;10.980;2022-11-20T12:14:30;7.80;99.90
14144;DHT22;7152;48.348;10.980;2022-11-20T12:16:56;7.70;99.90
14144;DHT22;7152;48.348;10.980;2022-11-20T12:19:31;7.60;99.90
14144;DHT22;7152;48.348;10.980;2022-11-20T12:30:22;7.20;99.90
14144;DHT22;7152;48.348;10.980;2022-11-20T12:33:33;7.10;99.90
14144;DHT22;7152;48.348;10.980;2022-11-20T12:36:16;7.00;99.90
14144;DHT22;7152;48.348;10.980;2022-11-20T12:41:46;7.00;99.90
14144;DHT22;7152;48.348;10.980;2022-11-20T12:56:53;7.30;99.90
14144;DHT22;7152;48.348;10.980;2022-11-20T13:02:31;7.20;99.90
14144;DHT22;7152;48.348;10.980;2022-11-20T13:07:35;7.20;99.90
14144;DHT22;7152;48.348;10.980;2022-11-20T13:10:01;7.20;99.90
14144;DHT22;7152;48.348;10.980;2022-11-20T13:12:41;7.20;99.90
14144;DHT22;7152;48.348;10.980;2022-11-20T13:17:59;7.10;99.90
14144;DHT22;7152;48.348;10.980;2022-11-20T13:20:26;7.10;99.90
14144;DHT22;7152;48.348;10.980;2022-11-20T13:22:54;7.10;99.90
14144;DHT22;7152;48.348;10.980;2022-11-20T13:27:50;7.00;99.90
14144;DHT22;7152;48.348;10.980;2022-11-20T13:30:18;6.90;99.90
14144;DHT22;7152;48.348;10.980;2022-11-20T13:32:54;6.90;99.90
14144;DHT22;7152;48.348;10.980;2022-11-20T13:35:30;6.90;99.90
14144;DHT22;7152;48.348;10.980;2022-11-20T13:38:22;6.90;99.90
14144;DHT22;7152;48.348;10.980;2022-11-20T13:40:54;6.90;99.90
14144;DHT22;7152;48.348;10.980;2022-11-20T13:43:44;6.90;99.90
14144;DHT22;7152;48.348;10.980;2022-11-20T13:46:09;6.90;99.90
14144;DHT22;7152;48.348;10.980;2022-11-20T13:48:41;6.90;99.90
14144;DHT22;7152;48.348;10.980;2022-11-20T13:59:47;6.90;99.90
14144;DHT22;7152;48.348;10.980;2022-11-20T14:02:17;6.90;99.90
14144;DHT22;7152;48.348;10.980;2022-11-20T14:04:47;6.90;99.90
14144;DHT22;7152;48.348;10.980;2022-11-20T14:07:13;6.90;99.90
14144;DHT22;7152;48.348;10.980;2022-11-20T14:09:50;6.90;99.90
14144;DHT22;7152;48.348;10.980;2022-11-20T14:12:18;7.00;99.90
14144;DHT22;7152;48.348;10.980;2022-11-20T14:14:52;7.00;99.90
14144;DHT22;7152;48.348;10.980;2022-11-20T14:17:23;7.00;99.90
14144;DHT22;7152;48.348;10.980;2022-11-20T14:19:51;6.90;99.90
14144;DHT22;7152;48.348;10.980;2022-11-20T14:22:21;7.00;99.90
14144;DHT22;7152;48.348;10.980;2022-11-20T14:24:48;7.00;99.90
14144;DHT22;7152;48.348;10.980;2022-11-20T14:27:19;7.00;99.90
14144;DHT22;7152;48.348;10.980;2022-11-20T14:29:47;7.00;99.90
14144;DHT22;7152;48.348;10.980;2022-11-20T14:32:29;7.00;99.90
14144;DHT22;7152;48.348;10.980;2022-11-20T14:34:59;6.90;99.90
14144;DHT22;7152;48.348;10.980;2022-11-20T14:37:31;6.90;99.90
14144;DHT22;7152;48.348;10.980;2022-11-20T14:39:58;6.80;99.90
14144;DHT22;7152;48.348;10.980;2022-11-20T14:42:28;6.80;99.90
14144;DHT22;7152;48.348;10.980;2022-11-20T14:44:59;6.80;99.90
14144;DHT22;7152;48.348;10.980;2022-11-20T14:47:27;6.80;99.90
14144;DHT22;7152;48.348;10.980;2022-11-20T14:49:55;6.80;99.90
14144;DHT22;7152;48.348;10.980;2022-11-20T14:52:26;6.80;99.90
14144;DHT22;7152;48.348;10.980;2022-11-20T14:54:55;6.90;99.90
14144;DHT22;7152;48.348;10.980;2022-11-20T14:57:26;6.80;99.90
14144;DHT22;7152;48.348;10.980;2022-11-20T15:02:45;6.80;99.90
14144;DHT22;7152;48.348;10.980;2022-11-20T15:05:12;6.80;99.90
14144;DHT22;7152;48.348;10.980;2022-11-20T15:07:40;6.80;99.90
14144;DHT22;7152;48.348;10.980;2022-11-20T15:10:13;6.80;99.90
14144;DHT22;7152;48.348;10.980;2022-11-20T15:12:52;6.80;99.90
14144;DHT22;7152;48.348;10.980;2022-11-20T15:18:32;6.70;99.90
14144;DHT22;7152;48.348;10.980;2022-11-20T15:21:00;6.60;99.90
14144;DHT22;7152;48.348;10.980;2022-11-20T15:23:27;6.60;99.90
14144;DHT22;7152;48.348;10.980;2022-11-20T15:25:53;6.60;99.90
14144;DHT22;7152;48.348;10.980;2022-11-20T15:28:31;6.50;99.90
14144;DHT22;7152;48.348;10.980;2022-11-20T15:30:57;6.40;99.90
14144;DHT22;7152;48.348;10.980;2022-11-20T15:33:22;6.30;99.90
14144;DHT22;7152;48.348;10.980;2022-11-20T15:35:48;6.30;99.90
14144;DHT22;7152;48.348;10.980;2022-11-20T15:38:14;6.20;99.90
14144;DHT22;7152;48.348;10.980;2022-11-20T15:40:39;6.10;99.90
14144;DHT22;7152;48.348;10.980;2022-11-20T15:43:05;6.10;99.90
14144;DHT22;7152;48.348;10.980;2022-11-20T15:45:48;6.10;99.90
14144;DHT22;7152;48.348;10.980;2022-11-20T15:48:20;6.10;99.90
14144;DHT22;7152;48.348;10.980;2022-11-20T15:53:17;6.00;99.90
14144;DHT22;7152;48.348;10.980;2022-11-20T15:55:43;6.10;99.90
14144;DHT22;7152;48.348;10.980;2022-11-20T15:58:09;6.10;99.90
14144;DHT22;7152;48.348;10.980;2022-11-20T16:00:34;6.10;99.90
14144;DHT22;7152;48.348;10.980;2022-11-20T16:03:00;6.10;99.90
14144;DHT22;7152;48.348;10.980;2022-11-20T16:05:29;6.10;99.90
14144;DHT22;7152;48.348;10.980;2022-11-20T16:07:55;6.10;99.90
14144;DHT22;7152;48.348;10.980;2022-11-20T16:10:22;6.10;99.90
14144;DHT22;7152;48.348;10.980;2022-11-20T16:12:48;6.10;99.90
14144;DHT22;7152;48.348;10.980;2022-11-20T16:15:45;6.10;99.90
14144;DHT22;7152;48.348;10.980;2022-11-20T16:18:15;6.00;99.90
14144;DHT22;7152;48.348;10.980;2022-11-20T16:20:42;6.00;99.90
14144;DHT22;7152;48.348;10.980;2022-11-20T16:23:07;5.90;99.90
14144;DHT22;7152;48.348;10.980;2022-11-20T16:25:33;5.90;99.90
14144;DHT22;7152;48.348;10.980;2022-11-20T16:27:59;5.90;99.90
14144;DHT22;7152;48.348;10.980;2022-11-20T16:30:24;5.90;99.90
14144;DHT22;7152;48.348;10.980;2022-11-20T16:32:50;5.90;99.90
14144;DHT22;7152;48.348;10.980;2022-11-20T16:35:16;5.90;99.90
14144;DHT22;7152;48.348;10.980;2022-11-20T16:37:42;5.80;99.90
14144;DHT22;7152;48.348;10.980;2022-11-20T16:40:09;5.80;99.90
14144;DHT22;7152;48.348;10.980;2022-11-20T16:42:36;5.90;99.90
14144;DHT22;7152;48.348;10.980;2022-11-20T16:45:03;5.90;99.90
14144;DHT22;7152;48.348;10.980;2022-11-20T16:47:33;5.90;99.90
14144;DHT22;7152;48.348;10.980;2022-11-20T16:50:00;5.90;99.90
14144;DHT22;7152;48.348;10.980;2022-11-20T16:52:26;5.90;99.90
14144;DHT22;7152;48.348;10.980;2022-11-20T16:54:52;6.00;99.90
14144;DHT22;7152;48.348;10.980;2022-11-20T16:57:17;5.90;99.90
14144;DHT22;7152;48.348;10.980;2022-11-20T16:59:43;5.90;99.90
14144;DHT22;7152;48.348;10.980;2022-11-20T17:02:09;5.90;99.90
14144;DHT22;7152;48.348;10.980;2022-11-20T17:04:35;5.80;99.90
14144;DHT22;7152;48.348;10.980;2022-11-20T17:07:01;5.80;99.90
14144;DHT22;7152;48.348;10.980;2022-11-20T17:09:28;5.70;99.90
14144;DHT22;7152;48.348;10.980;2022-11-20T17:11:53;5.60;99.90
14144;DHT22;7152;48.348;10.980;2022-11-20T17:14:19;5.70;99.90
14144;DHT22;7152;48.348;10.980;2022-11-20T17:16:44;5.60;99.90
14144;DHT22;7152;48.348;10.980;2022-11-20T17:19:10;5.50;99.90
14144;DHT22;7152;48.348;10.980;2022-11-20T17:21:37;5.50;99.90
14144;DHT22;7152;48.348;10.980;2022-11-20T17:24:06;5.50;99.90
14144;DHT22;7152;48.348;10.980;2022-11-20T17:26:33;5.40;99.90
14144;DHT22;7152;48.348;10.980;2022-11-20T17:29:10;5.40;99.90
14144;DHT22;7152;48.348;10.980;2022-11-20T17:31:37;5.40;99.90
14144;DHT22;7152;48.348;10.980;2022-11-20T17:34:03;5.30;99.90
14144;DHT22;7152;48.348;10.980;2022-11-20T17:36:30;5.30;99.90
14144;DHT22;7152;48.348;10.980;2022-11-20T17:38:56;5.30;99.90